createdAt,value
2023-05-06T00:00:03.203Z,23.27
2023-05-06T00:01:03.203Z,23.28
2023-05-06T00:02:03.178Z,23.28
2023-05-06T00:03:03.265Z,23.28
2023-05-06T00:04:03.520Z,23.27
2023-05-06T00:05:03.149Z,23.26
2023-05-06T00:06:03.139Z,23.27
2023-05-06T00:07:03.127Z,23.26
2023-05-06T00:08:03.117Z,23.25
2023-05-06T00:09:03.098Z,23.26
2023-05-06T00:10:03.162Z,23.27
2023-05-06T00:11:03.080Z,23.26
2023-05-06T00:12:03.065Z,23.26
2023-05-06T00:13:03.093Z,23.25
2023-05-06T00:14:03.130Z,23.25
2023-05-06T00:15:03.094Z,23.25
2023-05-06T00:16:03.104Z,23.25
2023-05-06T00:17:03.036Z,23.24
2023-05-06T00:18:03.071Z,23.24
2023-05-06T00:19:03.004Z,23.24
2023-05-06T00:20:03.023Z,23.24
2023-05-06T00:21:02.996Z,23.23
2023-05-06T00:22:03.000Z,23.24
2023-05-06T00:23:03.001Z,23.23
2023-05-06T00:24:02.986Z,23.23
2023-05-06T00:25:02.969Z,23.23
2023-05-06T00:26:02.986Z,23.23
2023-05-06T00:27:02.950Z,23.22
2023-05-06T00:28:02.948Z,23.23
2023-05-06T00:29:02.939Z,23.23
2023-05-06T00:30:03.044Z,23.22
2023-05-06T00:31:02.916Z,23.23
2023-05-06T00:32:02.956Z,23.22
2023-05-06T00:33:03.002Z,23.22
2023-05-06T00:34:02.930Z,23.22
2023-05-06T00:35:02.936Z,23.21
2023-05-06T00:36:02.919Z,23.22
2023-05-06T00:37:02.918Z,23.21
2023-05-06T00:38:02.919Z,23.21
2023-05-06T00:39:02.930Z,23.21
2023-05-06T00:40:02.947Z,23.21
2023-05-06T00:41:02.939Z,23.21
2023-05-06T00:42:02.958Z,23.21
2023-05-06T00:43:02.969Z,23.20
2023-05-06T00:44:02.981Z,23.19
2023-05-06T00:45:02.980Z,23.19
2023-05-06T00:46:03.105Z,23.19
2023-05-06T00:47:03.002Z,23.20
2023-05-06T00:48:03.033Z,23.20
2023-05-06T00:49:03.018Z,23.19
2023-05-06T00:50:03.085Z,23.20
2023-05-06T00:51:03.039Z,23.19
2023-05-06T00:52:03.059Z,23.19
2023-05-06T00:53:03.048Z,23.19
2023-05-06T00:54:03.056Z,23.19
2023-05-06T00:55:03.055Z,23.19
2023-05-06T00:56:03.064Z,23.18
2023-05-06T00:57:03.062Z,23.18
2023-05-06T00:58:03.084Z,23.18
2023-05-06T00:59:03.085Z,23.18
2023-05-06T01:00:03.110Z,23.18
2023-05-06T01:01:03.148Z,23.18
2023-05-06T01:02:03.286Z,23.17
2023-05-06T01:03:03.165Z,23.18
2023-05-06T01:04:03.127Z,23.17
2023-05-06T01:05:03.283Z,23.18
2023-05-06T01:06:03.124Z,23.17
2023-05-06T01:07:03.146Z,23.17
2023-05-06T01:08:03.146Z,23.16
2023-05-06T01:09:03.141Z,23.16
2023-05-06T01:10:03.157Z,23.16
2023-05-06T01:11:03.150Z,23.15
2023-05-06T01:12:03.206Z,23.15
2023-05-06T01:13:03.231Z,23.15
2023-05-06T01:14:03.189Z,23.16
2023-05-06T01:15:03.248Z,23.15
2023-05-06T01:16:03.198Z,23.14
2023-05-06T01:17:03.267Z,23.15
2023-05-06T01:18:03.383Z,23.14
2023-05-06T01:19:03.216Z,23.14
2023-05-06T01:20:03.254Z,23.14
2023-05-06T01:21:03.250Z,23.14
2023-05-06T01:22:03.260Z,23.13
2023-05-06T01:23:03.276Z,23.14
2023-05-06T01:24:03.258Z,23.13
2023-05-06T01:25:03.276Z,23.13
2023-05-06T01:26:03.284Z,23.13
2023-05-06T01:27:03.319Z,23.12
2023-05-06T01:28:03.355Z,23.12
2023-05-06T01:29:03.395Z,23.11
2023-05-06T01:30:03.380Z,23.11
2023-05-06T01:31:03.419Z,23.11
2023-05-06T01:32:03.378Z,23.12
2023-05-06T01:33:03.428Z,23.11
2023-05-06T01:34:03.403Z,23.10
2023-05-06T01:35:03.333Z,23.11
2023-05-06T01:36:03.334Z,23.11
2023-05-06T01:37:03.345Z,23.10
2023-05-06T01:38:03.321Z,23.10
2023-05-06T01:39:03.312Z,23.10
2023-05-06T01:40:03.303Z,23.09
2023-05-06T01:41:03.306Z,23.08
2023-05-06T01:42:03.337Z,23.09
2023-05-06T01:43:03.291Z,23.08
2023-05-06T01:44:03.274Z,23.08
2023-05-06T01:45:03.276Z,23.09
2023-05-06T01:46:03.313Z,23.08
2023-05-06T01:47:03.265Z,23.08
2023-05-06T01:48:03.290Z,23.08
2023-05-06T01:49:03.255Z,23.07
2023-05-06T01:50:03.292Z,23.07
2023-05-06T01:51:03.226Z,23.07
2023-05-06T01:52:03.220Z,23.07
2023-05-06T01:53:03.222Z,23.06
2023-05-06T01:54:03.223Z,23.07
2023-05-06T01:55:03.220Z,23.07
2023-05-06T01:56:03.245Z,23.07
2023-05-06T01:57:03.261Z,23.06
2023-05-06T01:58:03.278Z,23.06
2023-05-06T01:59:03.286Z,23.07
2023-05-06T02:00:03.298Z,23.06
2023-05-06T02:01:03.321Z,23.06
2023-05-06T02:02:03.339Z,23.05
2023-05-06T02:03:03.564Z,23.06
2023-05-06T02:04:03.389Z,23.06
2023-05-06T02:05:03.401Z,23.05
2023-05-06T02:06:03.526Z,23.05
2023-05-06T02:07:03.381Z,23.05
2023-05-06T02:08:03.406Z,23.05
2023-05-06T02:09:03.393Z,23.05
2023-05-06T02:10:03.411Z,23.05
2023-05-06T02:11:03.425Z,23.04
2023-05-06T02:12:03.434Z,23.04
2023-05-06T02:13:03.489Z,23.04
2023-05-06T02:14:03.448Z,23.04
2023-05-06T02:15:03.462Z,23.04
2023-05-06T02:16:03.515Z,23.04
2023-05-06T02:17:03.493Z,23.03
2023-05-06T02:18:03.544Z,23.03
2023-05-06T02:19:03.600Z,23.03
2023-05-06T02:20:03.545Z,23.02
2023-05-06T02:21:03.577Z,23.02
2023-05-06T02:22:03.560Z,23.02
2023-05-06T02:23:03.596Z,23.02
2023-05-06T02:24:03.593Z,23.02
2023-05-06T02:25:03.603Z,23.01
2023-05-06T02:26:03.623Z,23.01
2023-05-06T02:27:03.629Z,23.01
2023-05-06T02:28:03.661Z,23.00
2023-05-06T02:29:03.656Z,23.00
2023-05-06T02:30:03.696Z,23.00
2023-05-06T02:31:03.689Z,23.01
2023-05-06T02:32:03.697Z,23.01
2023-05-06T02:33:03.800Z,23.00
2023-05-06T02:34:03.727Z,22.99
2023-05-06T02:35:03.696Z,22.99
2023-05-06T02:36:03.692Z,22.99
2023-05-06T02:37:03.703Z,22.99
2023-05-06T02:38:03.687Z,22.99
2023-05-06T02:39:03.669Z,22.99
2023-05-06T02:40:03.682Z,22.99
2023-05-06T02:41:03.682Z,22.99
2023-05-06T02:42:03.637Z,22.98
2023-05-06T02:43:03.726Z,22.98
2023-05-06T02:44:03.622Z,22.97
2023-05-06T02:45:03.631Z,22.97
2023-05-06T02:46:03.658Z,22.98
2023-05-06T02:47:03.598Z,22.98
2023-05-06T02:48:03.645Z,22.98
2023-05-06T02:49:03.546Z,22.98
2023-05-06T02:50:03.545Z,22.97
2023-05-06T02:51:03.518Z,22.97
2023-05-06T02:52:03.518Z,22.96
2023-05-06T02:53:03.491Z,22.96
2023-05-06T02:54:03.548Z,22.96
2023-05-06T02:55:03.461Z,22.96
2023-05-06T02:56:03.461Z,22.96
2023-05-06T02:57:03.458Z,22.96
2023-05-06T02:58:03.436Z,22.95
2023-05-06T02:59:03.427Z,22.95
2023-05-06T03:00:03.426Z,22.95
2023-05-06T03:01:03.507Z,22.94
2023-05-06T03:02:03.402Z,22.95
2023-05-06T03:03:03.439Z,22.96
2023-05-06T03:04:03.426Z,22.95
2023-05-06T03:05:03.397Z,22.94
2023-05-06T03:06:03.371Z,22.94
2023-05-06T03:07:03.370Z,22.95
2023-05-06T03:08:03.368Z,22.94
2023-05-06T03:09:03.347Z,22.93
2023-05-06T03:10:03.330Z,22.94
2023-05-06T03:11:03.338Z,22.94
2023-05-06T03:12:03.320Z,22.94
2023-05-06T03:13:03.330Z,22.94
2023-05-06T03:14:03.305Z,22.94
2023-05-06T03:15:03.311Z,22.93
2023-05-06T03:16:03.290Z,22.93
2023-05-06T03:17:03.283Z,22.93
2023-05-06T03:18:03.284Z,22.93
2023-05-06T03:19:03.261Z,22.93
2023-05-06T03:20:03.253Z,22.94
2023-05-06T03:21:03.287Z,22.93
2023-05-06T03:22:03.246Z,22.92
2023-05-06T03:23:03.256Z,22.92
2023-05-06T03:24:03.223Z,22.92
2023-05-06T03:25:03.240Z,22.92
2023-05-06T03:26:03.297Z,22.92
2023-05-06T03:27:03.245Z,22.92
2023-05-06T03:28:03.238Z,22.92
2023-05-06T03:29:03.240Z,22.93
2023-05-06T03:30:03.263Z,22.92
2023-05-06T03:31:03.323Z,22.91
2023-05-06T03:32:03.294Z,22.92
2023-05-06T03:33:03.382Z,22.91
2023-05-06T03:34:03.314Z,22.92
2023-05-06T03:35:03.328Z,22.91
2023-05-06T03:36:03.349Z,22.91
2023-05-06T03:37:03.382Z,22.90
2023-05-06T03:38:03.390Z,22.90
2023-05-06T03:39:03.397Z,22.91
2023-05-06T03:40:03.421Z,22.90
2023-05-06T03:41:03.451Z,22.90
2023-05-06T03:42:03.494Z,22.90
2023-05-06T03:43:03.491Z,22.90
2023-05-06T03:44:03.496Z,22.90
2023-05-06T03:45:03.534Z,22.89
2023-05-06T03:46:03.602Z,22.89
2023-05-06T03:47:03.565Z,22.90
2023-05-06T03:48:03.644Z,22.89
2023-05-06T03:49:03.633Z,22.89
2023-05-06T03:50:03.640Z,22.90
2023-05-06T03:51:03.658Z,22.89
2023-05-06T03:52:03.684Z,22.89
2023-05-06T03:53:03.694Z,22.89
2023-05-06T03:54:03.680Z,22.89
2023-05-06T03:55:03.690Z,22.89
2023-05-06T03:56:03.679Z,22.89
2023-05-06T03:57:03.685Z,22.88
2023-05-06T03:58:03.752Z,22.88
2023-05-06T03:59:03.712Z,22.88
2023-05-06T04:00:03.674Z,22.88
2023-05-06T04:01:03.657Z,22.87
2023-05-06T04:02:03.691Z,22.88
2023-05-06T04:03:03.718Z,22.87
2023-05-06T04:04:03.686Z,22.87
2023-05-06T04:05:03.625Z,22.87
2023-05-06T04:06:03.662Z,22.87
2023-05-06T04:07:03.620Z,22.87
2023-05-06T04:08:03.595Z,22.87
2023-05-06T04:09:03.595Z,22.87
2023-05-06T04:10:03.595Z,22.86
2023-05-06T04:11:03.595Z,22.86
2023-05-06T04:12:03.599Z,22.87
2023-05-06T04:13:03.648Z,22.87
2023-05-06T04:14:03.584Z,22.86
2023-05-06T04:15:03.606Z,22.86
2023-05-06T04:16:03.639Z,22.86
2023-05-06T04:17:03.574Z,22.86
2023-05-06T04:18:03.661Z,22.86
2023-05-06T04:19:05.060Z,22.86
2023-05-06T04:20:03.562Z,22.85
2023-05-06T04:21:03.590Z,22.86
2023-05-06T04:22:03.548Z,22.86
2023-05-06T04:23:03.563Z,22.86
2023-05-06T04:24:03.540Z,22.86
2023-05-06T04:25:03.546Z,22.85
2023-05-06T04:26:03.546Z,22.85
2023-05-06T04:27:03.538Z,22.86
2023-05-06T04:28:03.564Z,22.85
2023-05-06T04:29:03.529Z,22.85
2023-05-06T04:30:03.523Z,22.84
2023-05-06T04:31:03.547Z,22.85
2023-05-06T04:32:03.655Z,22.84
2023-05-06T04:33:03.558Z,22.85
2023-05-06T04:34:03.537Z,22.84
2023-05-06T04:35:03.530Z,22.84
2023-05-06T04:36:03.546Z,22.84
2023-05-06T04:37:03.501Z,22.83
2023-05-06T04:38:03.500Z,22.83
2023-05-06T04:39:03.512Z,22.84
2023-05-06T04:40:03.487Z,22.83
2023-05-06T04:41:03.482Z,22.83
2023-05-06T04:42:03.480Z,22.84
2023-05-06T04:43:03.523Z,22.84
2023-05-06T04:44:03.479Z,22.83
2023-05-06T04:45:03.498Z,22.83
2023-05-06T04:46:03.563Z,22.83
2023-05-06T04:47:03.481Z,22.83
2023-05-06T04:48:03.515Z,22.83
2023-05-06T04:49:03.461Z,22.83
2023-05-06T04:50:03.470Z,22.83
2023-05-06T04:51:03.460Z,22.83
2023-05-06T04:52:03.462Z,22.83
2023-05-06T04:53:03.479Z,22.83
2023-05-06T04:54:03.458Z,22.83
2023-05-06T04:55:03.460Z,22.83
2023-05-06T04:56:03.468Z,22.83
2023-05-06T04:57:03.509Z,22.82
2023-05-06T04:58:03.474Z,22.83
2023-05-06T04:59:03.473Z,22.82
2023-05-06T05:00:03.485Z,22.82
2023-05-06T05:01:03.549Z,22.82
2023-05-06T05:02:03.581Z,22.82
2023-05-06T05:03:03.580Z,22.82
2023-05-06T05:04:03.475Z,22.82
2023-05-06T05:05:03.481Z,22.82
2023-05-06T05:06:03.493Z,22.83
2023-05-06T05:07:03.487Z,22.82
2023-05-06T05:08:03.489Z,22.82
2023-05-06T05:09:03.578Z,22.81
2023-05-06T05:10:03.537Z,22.82
2023-05-06T05:11:03.491Z,22.81
2023-05-06T05:12:03.503Z,22.82
2023-05-06T05:13:03.561Z,22.81
2023-05-06T05:14:03.527Z,22.81
2023-05-06T05:15:03.520Z,22.81
2023-05-06T05:16:03.525Z,22.81
2023-05-06T05:17:03.567Z,22.81
2023-05-06T05:18:03.644Z,22.81
2023-05-06T05:19:04.124Z,22.80
2023-05-06T05:20:03.540Z,22.81
2023-05-06T05:21:03.541Z,22.81
2023-05-06T05:22:03.539Z,22.81
2023-05-06T05:23:03.550Z,22.81
2023-05-06T05:24:03.533Z,22.81
2023-05-06T05:25:04.265Z,22.81
2023-05-06T05:26:03.547Z,22.81
2023-05-06T05:27:03.547Z,22.81
2023-05-06T05:28:03.550Z,22.81
2023-05-06T05:29:03.584Z,22.81
2023-05-06T05:30:03.564Z,22.82
2023-05-06T05:31:03.585Z,22.81
2023-05-06T05:32:03.570Z,22.81
2023-05-06T05:33:03.665Z,22.80
2023-05-06T05:34:03.649Z,22.81
2023-05-06T05:35:03.604Z,22.81
2023-05-06T05:36:03.598Z,22.81
2023-05-06T05:37:03.594Z,22.81
2023-05-06T05:38:03.599Z,22.81
2023-05-06T05:39:03.620Z,22.81
2023-05-06T05:40:03.636Z,22.81
2023-05-06T05:41:03.669Z,22.81
2023-05-06T05:42:03.706Z,22.81
2023-05-06T05:43:03.749Z,22.81
2023-05-06T05:44:03.759Z,22.81
2023-05-06T05:45:03.788Z,22.81
2023-05-06T05:46:03.916Z,22.81
2023-05-06T05:47:03.852Z,22.81
2023-05-06T05:48:03.944Z,22.82
2023-05-06T05:49:03.905Z,22.81
2023-05-06T05:50:03.933Z,22.81
2023-05-06T05:51:03.961Z,22.82
2023-05-06T05:52:04.009Z,22.82
2023-05-06T05:53:04.077Z,22.82
2023-05-06T05:54:04.108Z,22.82
2023-05-06T05:55:04.109Z,22.82
2023-05-06T05:56:04.127Z,22.82
2023-05-06T05:57:04.125Z,22.81
2023-05-06T05:58:04.133Z,22.82
2023-05-06T05:59:04.114Z,22.81
2023-05-06T06:00:04.112Z,22.81
2023-05-06T06:01:04.185Z,22.81
2023-05-06T06:02:04.123Z,22.81
2023-05-06T06:03:04.189Z,22.81
2023-05-06T06:04:04.196Z,22.81
2023-05-06T06:05:04.122Z,22.81
2023-05-06T06:06:04.189Z,22.81
2023-05-06T06:07:04.122Z,22.82
2023-05-06T06:08:04.172Z,22.81
2023-05-06T06:09:04.119Z,22.82
2023-05-06T06:10:04.132Z,22.82
2023-05-06T06:11:04.135Z,22.82
2023-05-06T06:12:04.104Z,22.82
2023-05-06T06:13:04.160Z,22.82
2023-05-06T06:14:04.110Z,22.82
2023-05-06T06:15:04.112Z,22.83
2023-05-06T06:16:04.133Z,22.83
2023-05-06T06:17:04.120Z,22.83
2023-05-06T06:18:04.214Z,22.83
2023-05-06T06:19:04.103Z,22.83
2023-05-06T06:20:04.109Z,22.83
2023-05-06T06:21:04.106Z,22.83
2023-05-06T06:22:04.222Z,22.83
2023-05-06T06:23:04.089Z,22.84
2023-05-06T06:24:04.086Z,22.84
2023-05-06T06:25:04.091Z,22.85
2023-05-06T06:26:04.084Z,22.86
2023-05-06T06:27:04.079Z,22.86
2023-05-06T06:28:04.084Z,22.86
2023-05-06T06:29:04.065Z,22.86
2023-05-06T06:30:04.071Z,22.86
2023-05-06T06:31:04.061Z,22.86
2023-05-06T06:32:04.181Z,22.86
2023-05-06T06:33:04.073Z,22.87
2023-05-06T06:34:04.092Z,22.86
2023-05-06T06:35:04.129Z,22.86
2023-05-06T06:36:04.195Z,22.87
2023-05-06T06:37:05.309Z,22.88
2023-05-06T06:38:04.312Z,22.87
2023-05-06T06:39:04.275Z,22.87
2023-05-06T06:40:04.347Z,22.88
2023-05-06T06:41:04.361Z,22.87
2023-05-06T06:42:04.453Z,22.88
2023-05-06T06:43:04.416Z,22.89
2023-05-06T06:44:04.458Z,22.88
2023-05-06T06:45:04.469Z,22.88
2023-05-06T06:46:04.563Z,22.88
2023-05-06T06:47:04.462Z,22.88
2023-05-06T06:48:04.544Z,22.89
2023-05-06T06:49:04.452Z,22.89
2023-05-06T06:50:04.461Z,22.90
2023-05-06T06:51:04.439Z,22.90
2023-05-06T06:52:04.429Z,22.89
2023-05-06T06:53:06.393Z,22.89
2023-05-06T06:54:04.479Z,22.89
2023-05-06T06:55:04.412Z,22.89
2023-05-06T06:56:04.408Z,22.89
2023-05-06T06:57:04.417Z,22.89
2023-05-06T06:58:04.417Z,22.89
2023-05-06T06:59:04.409Z,22.89
2023-05-06T07:00:04.384Z,22.89
2023-05-06T07:01:04.422Z,22.90
2023-05-06T07:02:04.434Z,22.89
2023-05-06T07:03:04.480Z,22.89
2023-05-06T07:04:07.039Z,22.90
2023-05-06T07:05:04.455Z,22.90
2023-05-06T07:06:04.454Z,22.90
2023-05-06T07:07:04.491Z,22.90
2023-05-06T07:08:04.454Z,22.89
2023-05-06T07:09:04.466Z,22.89
2023-05-06T07:10:04.551Z,22.89
2023-05-06T07:11:04.436Z,22.90
2023-05-06T07:12:04.430Z,22.90
2023-05-06T07:13:04.450Z,22.90
2023-05-06T07:14:04.409Z,22.90
2023-05-06T07:15:04.405Z,22.90
2023-05-06T07:16:04.411Z,22.90
2023-05-06T07:17:04.454Z,22.90
2023-05-06T07:18:04.404Z,22.90
2023-05-06T07:19:04.393Z,22.91
2023-05-06T07:20:04.389Z,22.92
2023-05-06T07:21:04.380Z,22.91
2023-05-06T07:22:04.386Z,22.91
2023-05-06T07:23:04.376Z,22.92
2023-05-06T07:24:04.358Z,22.91
2023-05-06T07:25:04.343Z,22.91
2023-05-06T07:26:04.495Z,22.91
2023-05-06T07:27:04.320Z,22.91
2023-05-06T07:28:04.321Z,22.91
2023-05-06T07:29:04.322Z,22.92
2023-05-06T07:30:04.359Z,22.92
2023-05-06T07:31:04.308Z,22.92
2023-05-06T07:32:04.292Z,22.92
2023-05-06T07:33:04.289Z,22.93
2023-05-06T07:34:04.264Z,22.93
2023-05-06T07:35:04.251Z,22.94
2023-05-06T07:36:04.240Z,22.95
2023-05-06T07:37:04.242Z,22.96
2023-05-06T07:38:04.241Z,22.98
2023-05-06T07:39:04.236Z,23.00
2023-05-06T07:40:04.223Z,23.00
2023-05-06T07:41:04.215Z,22.99
2023-05-06T07:42:04.343Z,23.00
2023-05-06T07:43:04.205Z,23.01
2023-05-06T07:44:04.186Z,23.01
2023-05-06T07:45:04.175Z,23.01
2023-05-06T07:46:04.263Z,23.01
2023-05-06T07:47:04.336Z,23.02
2023-05-06T07:48:04.204Z,23.01
2023-05-06T07:49:04.142Z,23.02
2023-05-06T07:50:04.123Z,23.03
2023-05-06T07:51:04.118Z,23.03
2023-05-06T07:52:04.163Z,23.03
2023-05-06T07:53:04.211Z,23.04
2023-05-06T07:54:04.104Z,23.04
2023-05-06T07:55:04.094Z,23.04
2023-05-06T07:56:04.074Z,23.05
2023-05-06T07:57:04.055Z,23.05
2023-05-06T07:58:04.087Z,23.05
2023-05-06T07:59:04.042Z,23.05
2023-05-06T08:00:04.020Z,23.06
2023-05-06T08:01:04.045Z,23.07
2023-05-06T08:02:04.030Z,23.09
2023-05-06T08:03:04.117Z,23.09
2023-05-06T08:04:04.106Z,23.11
2023-05-06T08:05:04.012Z,23.12
2023-05-06T08:06:04.041Z,23.13
2023-05-06T08:07:04.038Z,23.13
2023-05-06T08:08:04.056Z,23.14
2023-05-06T08:09:04.095Z,23.15
2023-05-06T08:10:04.092Z,23.15
2023-05-06T08:11:04.092Z,23.17
2023-05-06T08:12:04.109Z,23.18
2023-05-06T08:13:04.217Z,23.19
2023-05-06T08:14:04.131Z,23.19
2023-05-06T08:15:04.108Z,23.20
2023-05-06T08:16:04.105Z,23.20
2023-05-06T08:17:04.082Z,23.21
2023-05-06T08:18:13.716Z,23.22
2023-05-06T08:19:05.052Z,23.22
2023-05-06T08:20:04.039Z,23.23
2023-05-06T08:21:04.023Z,23.24
2023-05-06T08:22:04.060Z,23.25
2023-05-06T08:23:04.003Z,23.26
2023-05-06T08:24:03.993Z,23.28
2023-05-06T08:25:03.964Z,23.30
2023-05-06T08:26:03.956Z,23.30
2023-05-06T08:27:03.933Z,23.33
2023-05-06T08:28:03.949Z,23.33
2023-05-06T08:29:03.915Z,23.33
2023-05-06T08:30:04.033Z,23.32
2023-05-06T08:31:03.882Z,23.33
2023-05-06T08:32:03.983Z,23.33
2023-05-06T08:33:03.905Z,23.34
2023-05-06T08:34:03.874Z,23.35
2023-05-06T08:35:03.854Z,23.35
2023-05-06T08:36:03.838Z,23.35
2023-05-06T08:37:03.831Z,23.35
2023-05-06T08:38:03.822Z,23.35
2023-05-06T08:39:03.793Z,23.34
2023-05-06T08:40:03.805Z,23.34
2023-05-06T08:41:03.776Z,23.35
2023-05-06T08:42:03.792Z,23.36
2023-05-06T08:43:03.743Z,23.38
2023-05-06T08:44:03.741Z,23.40
2023-05-06T08:45:03.742Z,23.40
2023-05-06T08:46:03.761Z,23.41
2023-05-06T08:47:03.700Z,23.41
2023-05-06T08:48:03.725Z,23.43
2023-05-06T08:49:03.672Z,23.44
2023-05-06T08:50:03.676Z,23.46
2023-05-06T08:51:03.672Z,23.46
2023-05-06T08:52:03.614Z,23.47
2023-05-06T08:53:03.597Z,23.48
2023-05-06T08:54:03.594Z,23.49
2023-05-06T08:55:03.577Z,23.50
2023-05-06T08:56:03.551Z,23.51
2023-05-06T08:57:03.520Z,23.52
2023-05-06T08:58:03.511Z,23.53
2023-05-06T08:59:03.482Z,23.53
2023-05-06T09:00:03.475Z,23.54
2023-05-06T09:01:03.510Z,23.55
2023-05-06T09:02:03.459Z,23.56
2023-05-06T09:03:03.506Z,23.57
2023-05-06T09:04:03.417Z,23.58
2023-05-06T09:05:03.364Z,23.59
2023-05-06T09:06:03.362Z,23.60
2023-05-06T09:07:03.342Z,23.61
2023-05-06T09:08:03.296Z,23.62
2023-05-06T09:09:03.298Z,23.62
2023-05-06T09:10:03.275Z,23.63
2023-05-06T09:11:03.259Z,23.62
2023-05-06T09:12:03.246Z,23.62
2023-05-06T09:13:03.238Z,23.62
2023-05-06T09:14:03.230Z,23.64
2023-05-06T09:15:03.169Z,23.64
2023-05-06T09:16:03.153Z,23.64
2023-05-06T09:17:03.190Z,23.64
2023-05-06T09:18:03.209Z,23.66
2023-05-06T09:19:03.172Z,23.66
2023-05-06T09:20:03.075Z,23.67
2023-05-06T09:21:03.049Z,23.67
2023-05-06T09:22:03.037Z,23.67
2023-05-06T09:23:03.022Z,23.67
2023-05-06T09:24:02.995Z,23.68
2023-05-06T09:25:02.976Z,23.68
2023-05-06T09:26:02.960Z,23.68
2023-05-06T09:27:02.929Z,23.68
2023-05-06T09:28:02.918Z,23.69
2023-05-06T09:29:02.881Z,23.69
2023-05-06T09:30:02.896Z,23.69
2023-05-06T09:31:02.925Z,23.69
2023-05-06T09:32:02.830Z,23.69
2023-05-06T09:33:02.864Z,23.69
2023-05-06T09:34:02.860Z,23.69
2023-05-06T09:35:02.786Z,23.69
2023-05-06T09:36:02.760Z,23.69
2023-05-06T09:37:02.736Z,23.69
2023-05-06T09:38:03.399Z,23.69
2023-05-06T09:39:02.728Z,23.69
2023-05-06T09:40:02.701Z,23.69
2023-05-06T09:41:02.662Z,23.69
2023-05-06T09:42:02.647Z,23.69
2023-05-06T09:43:02.632Z,23.69
2023-05-06T09:44:02.641Z,23.70
2023-05-06T09:45:02.637Z,23.71
2023-05-06T09:46:02.624Z,23.71
2023-05-06T09:47:02.528Z,23.71
2023-05-06T09:48:02.561Z,23.71
2023-05-06T09:49:02.516Z,23.71
2023-05-06T09:50:02.555Z,23.72
2023-05-06T09:51:02.483Z,23.71
2023-05-06T09:52:02.467Z,23.72
2023-05-06T09:53:02.424Z,23.72
2023-05-06T09:54:02.406Z,23.72
2023-05-06T09:55:02.377Z,23.72
2023-05-06T09:56:02.354Z,23.72
2023-05-06T09:57:02.324Z,23.72
2023-05-06T09:58:02.312Z,23.72
2023-05-06T09:59:02.285Z,23.72
2023-05-06T10:00:02.258Z,23.73
2023-05-06T10:01:02.255Z,23.72
2023-05-06T10:02:02.309Z,23.72
2023-05-06T10:03:02.321Z,23.73
2023-05-06T10:04:02.307Z,23.72
2023-05-06T10:05:02.369Z,23.73
2023-05-06T10:06:02.157Z,23.73
2023-05-06T10:07:02.160Z,23.73
2023-05-06T10:08:02.163Z,23.73
2023-05-06T10:09:02.127Z,23.73
2023-05-06T10:10:02.164Z,23.73
2023-05-06T10:11:02.145Z,23.72
2023-05-06T10:12:02.110Z,23.72
2023-05-06T10:13:02.160Z,23.73
2023-05-06T10:14:02.094Z,23.72
2023-05-06T10:15:02.062Z,23.72
2023-05-06T10:16:02.092Z,23.73
2023-05-06T10:17:02.039Z,23.72
2023-05-06T10:18:02.041Z,23.72
2023-05-06T10:19:02.005Z,23.72
2023-05-06T10:20:02.034Z,23.71
2023-05-06T10:21:01.956Z,23.71
2023-05-06T10:22:03.407Z,23.71
2023-05-06T10:23:01.912Z,23.70
2023-05-06T10:24:01.911Z,23.70
2023-05-06T10:25:01.883Z,23.71
2023-05-06T10:26:01.852Z,23.70
2023-05-06T10:27:01.862Z,23.71
2023-05-06T10:28:02.980Z,23.71
2023-05-06T10:29:01.861Z,23.69
2023-05-06T10:30:01.937Z,23.70
2023-05-06T10:31:01.967Z,23.70
2023-05-06T10:32:02.086Z,23.70
2023-05-06T10:33:02.096Z,23.70
2023-05-06T10:34:02.094Z,23.70
2023-05-06T10:35:02.055Z,23.70
2023-05-06T10:36:02.066Z,23.71
2023-05-06T10:37:02.057Z,23.71
2023-05-06T10:38:02.032Z,23.71
2023-05-06T10:39:02.041Z,23.71
2023-05-06T10:40:02.073Z,23.71
2023-05-06T10:41:02.053Z,23.70
2023-05-06T10:42:02.066Z,23.71
2023-05-06T10:43:02.080Z,23.71
2023-05-06T10:44:02.098Z,23.71
2023-05-06T10:45:02.104Z,23.70
2023-05-06T10:46:02.179Z,23.71
2023-05-06T10:47:02.124Z,23.71
2023-05-06T10:48:02.158Z,23.70
2023-05-06T10:49:02.090Z,23.71
2023-05-06T10:50:02.085Z,23.71
2023-05-06T10:51:02.088Z,23.71
2023-05-06T10:52:02.066Z,23.70
2023-05-06T10:53:02.072Z,23.70
2023-05-06T10:54:02.052Z,23.70
2023-05-06T10:55:02.056Z,23.70
2023-05-06T10:56:02.067Z,23.70
2023-05-06T10:57:02.079Z,23.70
2023-05-06T10:58:02.088Z,23.69
2023-05-06T10:59:02.078Z,23.70
2023-05-06T11:00:02.065Z,23.69
2023-05-06T11:01:02.121Z,23.69
2023-05-06T11:02:02.076Z,23.70
2023-05-06T11:03:02.227Z,23.70
2023-05-06T11:04:02.044Z,23.71
2023-05-06T11:05:02.006Z,23.72
2023-05-06T11:06:01.989Z,23.72
2023-05-06T11:07:01.982Z,23.74
2023-05-06T11:08:01.963Z,23.75
2023-05-06T11:09:01.963Z,23.77
2023-05-06T11:10:02.075Z,23.79
2023-05-06T11:11:01.880Z,23.80
2023-05-06T11:12:01.918Z,23.82
2023-05-06T11:13:01.890Z,23.83
2023-05-06T11:14:01.836Z,23.85
2023-05-06T11:15:01.816Z,23.86
2023-05-06T11:16:01.811Z,23.86
2023-05-06T11:17:01.848Z,23.87
2023-05-06T11:18:01.839Z,23.88
2023-05-06T11:19:01.762Z,23.89
2023-05-06T11:20:01.794Z,23.89
2023-05-06T11:21:01.806Z,23.91
2023-05-06T11:22:01.822Z,23.92
2023-05-06T11:23:01.873Z,23.92
2023-05-06T11:24:01.862Z,23.93
2023-05-06T11:25:01.883Z,23.93
2023-05-06T11:26:02.002Z,23.94
2023-05-06T11:27:01.901Z,23.95
2023-05-06T11:28:01.934Z,23.96
2023-05-06T11:29:01.949Z,23.97
2023-05-06T11:30:01.954Z,23.98
2023-05-06T11:31:02.021Z,23.99
2023-05-06T11:32:02.013Z,24.00
2023-05-06T11:33:04.553Z,24.01
2023-05-06T11:34:01.992Z,24.00
2023-05-06T11:35:01.957Z,24.02
2023-05-06T11:36:01.931Z,24.03
2023-05-06T11:37:01.909Z,24.04
2023-05-06T11:38:01.911Z,24.05
2023-05-06T11:39:03.505Z,24.06
2023-05-06T11:40:01.847Z,24.06
2023-05-06T11:41:01.830Z,24.07
2023-05-06T11:42:01.801Z,24.07
2023-05-06T11:43:01.787Z,24.07
2023-05-06T11:44:01.762Z,24.07
2023-05-06T11:45:01.749Z,24.09
2023-05-06T11:46:01.729Z,24.08
2023-05-06T11:47:01.701Z,24.07
2023-05-06T11:48:01.705Z,24.06
2023-05-06T11:49:01.656Z,24.06
2023-05-06T11:50:01.659Z,24.06
2023-05-06T11:51:01.598Z,24.06
2023-05-06T11:52:01.602Z,24.06
2023-05-06T11:53:01.579Z,24.06
2023-05-06T11:54:01.541Z,24.06
2023-05-06T11:55:01.513Z,24.07
2023-05-06T11:56:01.498Z,24.08
2023-05-06T11:57:01.477Z,24.09
2023-05-06T11:58:01.441Z,24.10
2023-05-06T11:59:01.426Z,24.10
2023-05-06T12:00:01.382Z,24.12
2023-05-06T12:01:01.421Z,24.13
2023-05-06T12:02:01.341Z,24.15
2023-05-06T12:03:01.414Z,24.15
2023-05-06T12:04:01.463Z,24.16
2023-05-06T12:05:01.358Z,24.17
2023-05-06T12:06:01.304Z,24.17
2023-05-06T12:07:01.254Z,24.17
2023-05-06T12:08:01.224Z,24.18
2023-05-06T12:09:01.202Z,24.17
2023-05-06T12:10:01.334Z,24.16
2023-05-06T12:11:01.163Z,24.16
2023-05-06T12:12:01.200Z,24.16
2023-05-06T12:13:01.217Z,24.16
2023-05-06T12:14:01.456Z,24.18
2023-05-06T12:15:01.115Z,24.19
2023-05-06T12:16:01.167Z,24.20
2023-05-06T12:17:01.052Z,24.20
2023-05-06T12:18:01.126Z,24.21
2023-05-06T12:19:01.038Z,24.21
2023-05-06T12:20:01.007Z,24.22
2023-05-06T12:21:00.975Z,24.22
2023-05-06T12:22:01.019Z,24.22
2023-05-06T12:23:01.089Z,24.20
2023-05-06T12:24:01.146Z,24.21
2023-05-06T12:25:01.142Z,24.22
2023-05-06T12:26:01.204Z,24.24
2023-05-06T12:27:01.253Z,24.22
2023-05-06T12:28:01.293Z,24.22
2023-05-06T12:29:01.328Z,24.22
2023-05-06T12:30:01.508Z,24.22
2023-05-06T12:31:01.407Z,24.25
2023-05-06T12:32:01.563Z,24.26
2023-05-06T12:33:01.625Z,24.27
2023-05-06T12:34:01.545Z,24.28
2023-05-06T12:35:01.575Z,24.28
2023-05-06T12:36:01.625Z,24.29
2023-05-06T12:37:01.659Z,24.30
2023-05-06T12:38:01.700Z,24.30
2023-05-06T12:39:01.766Z,24.31
2023-05-06T12:40:01.839Z,24.32
2023-05-06T12:41:01.821Z,24.32
2023-05-06T12:42:01.862Z,24.33
2023-05-06T12:43:01.869Z,24.34
2023-05-06T12:44:01.881Z,24.34
2023-05-06T12:45:01.914Z,24.34
2023-05-06T12:46:02.004Z,24.34
2023-05-06T12:47:01.987Z,24.35
2023-05-06T12:48:02.100Z,24.35
2023-05-06T12:49:02.061Z,24.35
2023-05-06T12:50:02.081Z,24.35
2023-05-06T12:51:02.166Z,24.36
2023-05-06T12:52:02.163Z,24.36